sensor_id;sensor_type;location;lat;lon;timestamp;P1;durP1;ratioP1;P2;durP2;ratioP2
2562;SDS011;1291;51.420;6.970;2022-07-03T00:00:32;1.98;;;1.52;;
2562;SDS011;1291;51.420;6.970;2022-07-03T00:02:58;1.85;;;1.45;;
2562;SDS011;1291;51.420;6.970;2022-07-03T00:05:24;4.13;;;1.90;;
2562;SDS011;1291;51.420;6.970;2022-07-03T00:07:50;1.45;;;1.27;;
2562;SDS011;1291;51.420;6.970;2022-07-03T00:10:15;3.28;;;1.55;;
2562;SDS011;1291;51.420;6.970;2022-07-03T00:12:41;3.65;;;1.85;;
2562;SDS011;1291;51.420;6.970;2022-07-03T00:15:06;3.60;;;1.50;;
2562;SDS011;1291;51.420;6.970;2022-07-03T00:17:32;2.60;;;1.40;;
2562;SDS011;1291;51.420;6.970;2022-07-03T00:19:57;2.13;;;1.50;;
2562;SDS011;1291;51.420;6.970;2022-07-03T00:22:26;2.50;;;1.50;;
2562;SDS011;1291;51.420;6.970;2022-07-03T00:24:55;4.30;;;1.80;;
2562;SDS011;1291;51.420;6.970;2022-07-03T00:27:29;1.30;;;1.20;;
2562;SDS011;1291;51.420;6.970;2022-07-03T00:29:58;1.90;;;1.70;;
2562;SDS011;1291;51.420;6.970;2022-07-03T00:32:29;1.80;;;1.50;;
2562;SDS011;1291;51.420;6.970;2022-07-03T00:34:57;3.58;;;1.70;;
2562;SDS011;1291;51.420;6.970;2022-07-03T00:37:24;1.63;;;1.27;;
2562;SDS011;1291;51.420;6.970;2022-07-03T00:39:49;2.50;;;1.40;;
2562;SDS011;1291;51.420;6.970;2022-07-03T00:42:15;2.05;;;1.80;;
2562;SDS011;1291;51.420;6.970;2022-07-03T00:44:49;2.58;;;1.70;;
2562;SDS011;1291;51.420;6.970;2022-07-03T00:47:17;3.30;;;1.75;;
2562;SDS011;1291;51.420;6.970;2022-07-03T00:49:45;2.20;;;1.70;;
2562;SDS011;1291;51.420;6.970;2022-07-03T00:52:12;3.63;;;1.80;;
2562;SDS011;1291;51.420;6.970;2022-07-03T00:54:42;2.63;;;1.77;;
2562;SDS011;1291;51.420;6.970;2022-07-03T00:57:12;2.05;;;1.80;;
2562;SDS011;1291;51.420;6.970;2022-07-03T00:59:39;2.75;;;1.60;;
2562;SDS011;1291;51.420;6.970;2022-07-03T01:02:05;5.40;;;1.70;;
2562;SDS011;1291;51.420;6.970;2022-07-03T01:07:46;3.95;;;1.70;;
2562;SDS011;1291;51.420;6.970;2022-07-03T01:19:10;3.67;;;2.22;;
2562;SDS011;1291;51.420;6.970;2022-07-03T01:30:10;3.55;;;2.45;;
2562;SDS011;1291;51.420;6.970;2022-07-03T01:32:46;4.65;;;2.40;;
2562;SDS011;1291;51.420;6.970;2022-07-03T01:35:39;3.15;;;2.22;;
2562;SDS011;1291;51.420;6.970;2022-07-03T01:38:10;3.25;;;2.30;;
2562;SDS011;1291;51.420;6.970;2022-07-03T01:40:37;5.78;;;2.17;;
2562;SDS011;1291;51.420;6.970;2022-07-03T01:43:06;4.05;;;1.88;;
2562;SDS011;1291;51.420;6.970;2022-07-03T01:45:45;2.28;;;1.90;;
2562;SDS011;1291;51.420;6.970;2022-07-03T01:48:15;4.22;;;2.45;;
2562;SDS011;1291;51.420;6.970;2022-07-03T01:50:42;2.75;;;2.05;;
2562;SDS011;1291;51.420;6.970;2022-07-03T01:53:11;3.92;;;1.80;;
2562;SDS011;1291;51.420;6.970;2022-07-03T01:55:38;2.45;;;2.00;;
2562;SDS011;1291;51.420;6.970;2022-07-03T01:58:05;2.70;;;2.10;;
2562;SDS011;1291;51.420;6.970;2022-07-03T02:00:31;4.00;;;1.83;;
2562;SDS011;1291;51.420;6.970;2022-07-03T02:03:11;2.33;;;1.52;;
2562;SDS011;1291;51.420;6.970;2022-07-03T02:05:46;2.03;;;1.77;;
2562;SDS011;1291;51.420;6.970;2022-07-03T02:11:07;4.05;;;2.00;;
2562;SDS011;1291;51.420;6.970;2022-07-03T02:13:47;2.17;;;1.65;;
2562;SDS011;1291;51.420;6.970;2022-07-03T02:16:28;1.92;;;1.80;;
2562;SDS011;1291;51.420;6.970;2022-07-03T02:19:03;2.35;;;1.80;;
2562;SDS011;1291;51.420;6.970;2022-07-03T02:21:29;2.60;;;1.73;;
2562;SDS011;1291;51.420;6.970;2022-07-03T02:26:44;2.30;;;1.60;;
2562;SDS011;1291;51.420;6.970;2022-07-03T02:29:20;2.80;;;1.70;;
2562;SDS011;1291;51.420;6.970;2022-07-03T02:31:53;3.35;;;1.70;;
2562;SDS011;1291;51.420;6.970;2022-07-03T02:34:23;2.95;;;1.95;;
2562;SDS011;1291;51.420;6.970;2022-07-03T02:36:50;3.67;;;1.65;;
2562;SDS011;1291;51.420;6.970;2022-07-03T02:39:25;4.85;;;1.90;;
2562;SDS011;1291;51.420;6.970;2022-07-03T02:41:58;2.10;;;1.90;;
2562;SDS011;1291;51.420;6.970;2022-07-03T02:44:31;2.53;;;1.40;;
2562;SDS011;1291;51.420;6.970;2022-07-03T02:50:15;2.42;;;1.70;;
2562;SDS011;1291;51.420;6.970;2022-07-03T02:54:55;2.42;;;1.85;;
2562;SDS011;1291;51.420;6.970;2022-07-03T02:57:24;2.90;;;1.77;;
2562;SDS011;1291;51.420;6.970;2022-07-03T03:00:03;2.25;;;1.70;;
2562;SDS011;1291;51.420;6.970;2022-07-03T03:05:27;2.33;;;1.73;;
2562;SDS011;1291;51.420;6.970;2022-07-03T03:08:11;3.83;;;1.60;;
2562;SDS011;1291;51.420;6.970;2022-07-03T03:10:41;2.33;;;2.10;;
2562;SDS011;1291;51.420;6.970;2022-07-03T03:13:10;3.90;;;1.70;;
2562;SDS011;1291;51.420;6.970;2022-07-03T03:15:37;3.15;;;1.70;;
2562;SDS011;1291;51.420;6.970;2022-07-03T03:18:05;2.85;;;2.03;;
2562;SDS011;1291;51.420;6.970;2022-07-03T03:20:36;3.50;;;1.80;;
2562;SDS011;1291;51.420;6.970;2022-07-03T03:23:46;2.95;;;1.88;;
2562;SDS011;1291;51.420;6.970;2022-07-03T03:26:00;3.95;;;1.75;;
2562;SDS011;1291;51.420;6.970;2022-07-03T03:28:25;2.95;;;1.70;;
2562;SDS011;1291;51.420;6.970;2022-07-03T03:30:50;5.45;;;2.25;;
2562;SDS011;1291;51.420;6.970;2022-07-03T03:33:16;3.55;;;1.90;;
2562;SDS011;1291;51.420;6.970;2022-07-03T03:35:42;3.08;;;2.25;;
2562;SDS011;1291;51.420;6.970;2022-07-03T03:38:07;3.25;;;1.85;;
2562;SDS011;1291;51.420;6.970;2022-07-03T03:40:33;3.53;;;2.00;;
2562;SDS011;1291;51.420;6.970;2022-07-03T03:42:59;3.35;;;1.92;;
2562;SDS011;1291;51.420;6.970;2022-07-03T03:45:25;3.17;;;2.42;;
2562;SDS011;1291;51.420;6.970;2022-07-03T03:47:50;5.47;;;2.10;;
2562;SDS011;1291;51.420;6.970;2022-07-03T03:50:16;3.22;;;2.08;;
2562;SDS011;1291;51.420;6.970;2022-07-03T03:52:42;4.78;;;1.77;;
2562;SDS011;1291;51.420;6.970;2022-07-03T03:55:07;4.18;;;1.73;;
2562;SDS011;1291;51.420;6.970;2022-07-03T03:57:36;4.57;;;2.10;;
2562;SDS011;1291;51.420;6.970;2022-07-03T04:00:02;4.88;;;2.00;;
2562;SDS011;1291;51.420;6.970;2022-07-03T04:02:28;4.05;;;2.42;;
2562;SDS011;1291;51.420;6.970;2022-07-03T04:04:54;4.85;;;1.77;;
2562;SDS011;1291;51.420;6.970;2022-07-03T04:07:22;1.80;;;1.70;;
2562;SDS011;1291;51.420;6.970;2022-07-03T04:09:47;6.22;;;1.98;;
2562;SDS011;1291;51.420;6.970;2022-07-03T04:12:13;4.03;;;1.80;;
2562;SDS011;1291;51.420;6.970;2022-07-03T04:14:38;2.88;;;1.70;;
2562;SDS011;1291;51.420;6.970;2022-07-03T04:17:04;2.88;;;2.30;;
2562;SDS011;1291;51.420;6.970;2022-07-03T04:19:29;4.85;;;2.10;;
2562;SDS011;1291;51.420;6.970;2022-07-03T04:21:55;5.03;;;2.20;;
2562;SDS011;1291;51.420;6.970;2022-07-03T04:24:20;6.55;;;1.45;;
2562;SDS011;1291;51.420;6.970;2022-07-03T04:26:46;2.95;;;1.60;;
2562;SDS011;1291;51.420;6.970;2022-07-03T04:29:12;1.95;;;1.75;;
2562;SDS011;1291;51.420;6.970;2022-07-03T04:31:37;4.25;;;1.83;;
2562;SDS011;1291;51.420;6.970;2022-07-03T04:34:03;2.90;;;2.10;;
2562;SDS011;1291;51.420;6.970;2022-07-03T04:36:28;3.75;;;2.05;;
2562;SDS011;1291;51.420;6.970;2022-07-03T04:38:54;8.52;;;2.13;;
2562;SDS011;1291;51.420;6.970;2022-07-03T04:41:19;2.97;;;1.90;;
2562;SDS011;1291;51.420;6.970;2022-07-03T04:43:44;2.92;;;2.10;;
2562;SDS011;1291;51.420;6.970;2022-07-03T04:46:10;4.82;;;2.58;;
2562;SDS011;1291;51.420;6.970;2022-07-03T04:48:35;2.95;;;1.80;;
2562;SDS011;1291;51.420;6.970;2022-07-03T04:51:03;5.45;;;2.17;;
2562;SDS011;1291;51.420;6.970;2022-07-03T04:53:29;3.25;;;2.42;;
2562;SDS011;1291;51.420;6.970;2022-07-03T04:55:54;4.28;;;1.90;;
2562;SDS011;1291;51.420;6.970;2022-07-03T04:58:19;3.35;;;2.00;;
2562;SDS011;1291;51.420;6.970;2022-07-03T05:00:48;3.20;;;2.30;;
2562;SDS011;1291;51.420;6.970;2022-07-03T05:03:13;2.90;;;2.08;;
2562;SDS011;1291;51.420;6.970;2022-07-03T05:05:39;3.95;;;2.40;;
2562;SDS011;1291;51.420;6.970;2022-07-03T05:08:05;4.07;;;2.55;;
2562;SDS011;1291;51.420;6.970;2022-07-03T05:10:31;2.42;;;2.22;;
2562;SDS011;1291;51.420;6.970;2022-07-03T05:12:56;4.32;;;3.00;;
2562;SDS011;1291;51.420;6.970;2022-07-03T05:15:22;4.15;;;2.63;;
2562;SDS011;1291;51.420;6.970;2022-07-03T05:17:48;4.07;;;2.15;;
2562;SDS011;1291;51.420;6.970;2022-07-03T05:20:13;6.13;;;3.13;;
2562;SDS011;1291;51.420;6.970;2022-07-03T05:22:57;4.50;;;3.05;;
2562;SDS011;1291;51.420;6.970;2022-07-03T05:25:25;5.15;;;3.17;;
2562;SDS011;1291;51.420;6.970;2022-07-03T05:27:51;6.15;;;3.30;;
2562;SDS011;1291;51.420;6.970;2022-07-03T05:30:18;9.05;;;3.30;;
2562;SDS011;1291;51.420;6.970;2022-07-03T05:32:44;4.00;;;2.90;;
2562;SDS011;1291;51.420;6.970;2022-07-03T05:35:10;3.75;;;3.00;;
2562;SDS011;1291;51.420;6.970;2022-07-03T05:37:35;5.97;;;3.22;;
2562;SDS011;1291;51.420;6.970;2022-07-03T05:40:07;4.35;;;3.25;;
2562;SDS011;1291;51.420;6.970;2022-07-03T05:42:33;6.53;;;3.30;;
2562;SDS011;1291;51.420;6.970;2022-07-03T05:45:00;4.13;;;3.17;;
2562;SDS011;1291;51.420;6.970;2022-07-03T05:47:25;8.45;;;3.35;;
2562;SDS011;1291;51.420;6.970;2022-07-03T05:49:51;11.63;;;3.80;;
2562;SDS011;1291;51.420;6.970;2022-07-03T05:52:16;4.45;;;3.15;;
2562;SDS011;1291;51.420;6.970;2022-07-03T05:54:42;4.93;;;3.45;;
2562;SDS011;1291;51.420;6.970;2022-07-03T05:57:07;6.22;;;3.80;;
2562;SDS011;1291;51.420;6.970;2022-07-03T05:59:33;4.43;;;3.83;;
2562;SDS011;1291;51.420;6.970;2022-07-03T06:01:58;5.90;;;3.90;;
2562;SDS011;1291;51.420;6.970;2022-07-03T06:04:24;5.50;;;4.30;;
2562;SDS011;1291;51.420;6.970;2022-07-03T06:06:49;5.38;;;3.60;;
2562;SDS011;1291;51.420;6.970;2022-07-03T06:09:14;5.97;;;3.95;;
2562;SDS011;1291;51.420;6.970;2022-07-03T06:11:40;5.18;;;3.92;;
2562;SDS011;1291;51.420;6.970;2022-07-03T06:14:05;7.18;;;3.70;;
2562;SDS011;1291;51.420;6.970;2022-07-03T06:16:30;6.13;;;4.07;;
2562;SDS011;1291;51.420;6.970;2022-07-03T06:18:56;5.63;;;4.13;;
2562;SDS011;1291;51.420;6.970;2022-07-03T06:21:21;6.25;;;4.72;;
2562;SDS011;1291;51.420;6.970;2022-07-03T06:23:49;5.30;;;4.20;;
2562;SDS011;1291;51.420;6.970;2022-07-03T06:26:15;6.55;;;4.65;;
2562;SDS011;1291;51.420;6.970;2022-07-03T06:28:41;5.43;;;4.25;;
2562;SDS011;1291;51.420;6.970;2022-07-03T06:31:07;4.53;;;4.00;;
2562;SDS011;1291;51.420;6.970;2022-07-03T06:33:33;4.43;;;3.85;;
2562;SDS011;1291;51.420;6.970;2022-07-03T06:36:01;3.72;;;3.42;;
2562;SDS011;1291;51.420;6.970;2022-07-03T06:38:27;6.50;;;4.00;;
2562;SDS011;1291;51.420;6.970;2022-07-03T06:40:52;4.95;;;3.90;;
2562;SDS011;1291;51.420;6.970;2022-07-03T06:43:17;4.85;;;3.95;;
2562;SDS011;1291;51.420;6.970;2022-07-03T06:45:43;6.18;;;4.10;;
2562;SDS011;1291;51.420;6.970;2022-07-03T06:48:08;5.47;;;3.97;;
2562;SDS011;1291;51.420;6.970;2022-07-03T06:50:33;6.10;;;3.97;;
2562;SDS011;1291;51.420;6.970;2022-07-03T06:52:59;8.13;;;3.80;;
2562;SDS011;1291;51.420;6.970;2022-07-03T06:55:25;8.25;;;3.88;;
2562;SDS011;1291;51.420;6.970;2022-07-03T06:57:51;4.57;;;3.80;;
2562;SDS011;1291;51.420;6.970;2022-07-03T07:00:16;5.25;;;3.63;;
2562;SDS011;1291;51.420;6.970;2022-07-03T07:02:41;5.47;;;3.75;;
2562;SDS011;1291;51.420;6.970;2022-07-03T07:05:07;5.05;;;3.38;;
2562;SDS011;1291;51.420;6.970;2022-07-03T07:07:33;8.75;;;3.50;;
2562;SDS011;1291;51.420;6.970;2022-07-03T07:09:58;7.00;;;4.10;;
2562;SDS011;1291;51.420;6.970;2022-07-03T07:12:23;6.95;;;3.72;;
2562;SDS011;1291;51.420;6.970;2022-07-03T07:14:50;6.82;;;3.88;;
2562;SDS011;1291;51.420;6.970;2022-07-03T07:17:15;4.82;;;3.67;;
2562;SDS011;1291;51.420;6.970;2022-07-03T07:19:44;4.88;;;3.80;;
2562;SDS011;1291;51.420;6.970;2022-07-03T07:22:09;5.20;;;3.25;;
2562;SDS011;1291;51.420;6.970;2022-07-03T07:24:34;4.55;;;3.17;;
2562;SDS011;1291;51.420;6.970;2022-07-03T07:27:00;4.65;;;3.00;;
2562;SDS011;1291;51.420;6.970;2022-07-03T07:29:28;4.43;;;3.10;;
2562;SDS011;1291;51.420;6.970;2022-07-03T07:31:54;3.08;;;2.83;;
2562;SDS011;1291;51.420;6.970;2022-07-03T07:34:19;5.00;;;3.05;;
2562;SDS011;1291;51.420;6.970;2022-07-03T07:36:44;6.10;;;3.10;;
2562;SDS011;1291;51.420;6.970;2022-07-03T07:39:10;4.97;;;3.28;;
2562;SDS011;1291;51.420;6.970;2022-07-03T07:41:36;4.90;;;3.30;;
2562;SDS011;1291;51.420;6.970;2022-07-03T07:44:02;4.53;;;2.83;;
2562;SDS011;1291;51.420;6.970;2022-07-03T07:46:28;4.68;;;2.95;;
2562;SDS011;1291;51.420;6.970;2022-07-03T07:48:54;6.47;;;3.00;;
2562;SDS011;1291;51.420;6.970;2022-07-03T07:51:19;5.50;;;3.08;;
2562;SDS011;1291;51.420;6.970;2022-07-03T07:53:45;6.63;;;3.15;;
2562;SDS011;1291;51.420;6.970;2022-07-03T07:56:10;5.50;;;3.63;;
2562;SDS011;1291;51.420;6.970;2022-07-03T07:58:35;6.25;;;3.35;;
2562;SDS011;1291;51.420;6.970;2022-07-03T08:01:01;4.97;;;3.47;;
2562;SDS011;1291;51.420;6.970;2022-07-03T08:03:44;5.43;;;3.30;;
2562;SDS011;1291;51.420;6.970;2022-07-03T08:06:28;5.03;;;2.83;;
2562;SDS011;1291;51.420;6.970;2022-07-03T08:08:53;4.70;;;2.97;;
2562;SDS011;1291;51.420;6.970;2022-07-03T08:11:19;8.75;;;3.30;;
2562;SDS011;1291;51.420;6.970;2022-07-03T08:13:44;4.05;;;2.85;;
2562;SDS011;1291;51.420;6.970;2022-07-03T08:16:11;3.97;;;3.10;;
2562;SDS011;1291;51.420;6.970;2022-07-03T08:18:37;7.45;;;3.28;;
2562;SDS011;1291;51.420;6.970;2022-07-03T08:21:03;5.72;;;3.70;;
2562;SDS011;1291;51.420;6.970;2022-07-03T08:23:28;5.05;;;3.67;;
2562;SDS011;1291;51.420;6.970;2022-07-03T08:25:54;7.32;;;4.07;;
2562;SDS011;1291;51.420;6.970;2022-07-03T08:28:19;7.57;;;4.20;;
2562;SDS011;1291;51.420;6.970;2022-07-03T08:30:44;12.02;;;4.68;;
2562;SDS011;1291;51.420;6.970;2022-07-03T08:33:10;7.18;;;3.95;;
2562;SDS011;1291;51.420;6.970;2022-07-03T08:35:35;7.93;;;4.22;;
2562;SDS011;1291;51.420;6.970;2022-07-03T08:38:00;6.45;;;4.47;;
2562;SDS011;1291;51.420;6.970;2022-07-03T08:40:26;5.80;;;4.03;;
2562;SDS011;1291;51.420;6.970;2022-07-03T08:42:53;7.65;;;4.05;;
2562;SDS011;1291;51.420;6.970;2022-07-03T08:45:22;4.72;;;3.97;;
2562;SDS011;1291;51.420;6.970;2022-07-03T08:47:49;95.85;;;10.52;;
2562;SDS011;1291;51.420;6.970;2022-07-03T08:50:16;15.98;;;4.30;;
2562;SDS011;1291;51.420;6.970;2022-07-03T08:52:43;35.13;;;6.13;;
2562;SDS011;1291;51.420;6.970;2022-07-03T08:55:10;55.47;;;7.10;;
2562;SDS011;1291;51.420;6.970;2022-07-03T08:57:37;5.30;;;3.47;;
2562;SDS011;1291;51.420;6.970;2022-07-03T09:00:04;6.20;;;4.25;;
2562;SDS011;1291;51.420;6.970;2022-07-03T09:02:31;4.80;;;3.33;;
2562;SDS011;1291;51.420;6.970;2022-07-03T09:04:59;7.18;;;3.70;;
2562;SDS011;1291;51.420;6.970;2022-07-03T09:07:27;7.00;;;3.60;;
2562;SDS011;1291;51.420;6.970;2022-07-03T09:09:56;4.97;;;3.33;;
2562;SDS011;1291;51.420;6.970;2022-07-03T09:12:21;5.13;;;3.00;;
2562;SDS011;1291;51.420;6.970;2022-07-03T09:14:47;5.03;;;2.63;;
2562;SDS011;1291;51.420;6.970;2022-07-03T09:17:12;9.65;;;3.05;;
2562;SDS011;1291;51.420;6.970;2022-07-03T09:19:44;4.85;;;2.72;;
2562;SDS011;1291;51.420;6.970;2022-07-03T09:22:23;3.72;;;2.25;;
2562;SDS011;1291;51.420;6.970;2022-07-03T09:24:51;3.47;;;2.42;;
2562;SDS011;1291;51.420;6.970;2022-07-03T09:27:18;5.05;;;2.30;;
2562;SDS011;1291;51.420;6.970;2022-07-03T09:29:50;3.97;;;2.63;;
2562;SDS011;1291;51.420;6.970;2022-07-03T09:32:16;4.25;;;2.80;;
2562;SDS011;1291;51.420;6.970;2022-07-03T09:34:41;5.47;;;2.58;;
2562;SDS011;1291;51.420;6.970;2022-07-03T09:37:06;3.60;;;2.63;;
2562;SDS011;1291;51.420;6.970;2022-07-03T09:39:31;8.65;;;3.00;;
2562;SDS011;1291;51.420;6.970;2022-07-03T09:42:02;7.75;;;3.00;;
2562;SDS011;1291;51.420;6.970;2022-07-03T09:44:40;3.17;;;2.28;;
2562;SDS011;1291;51.420;6.970;2022-07-03T09:57:33;4.47;;;2.20;;
2562;SDS011;1291;51.420;6.970;2022-07-03T10:02:33;3.78;;;1.98;;
2562;SDS011;1291;51.420;6.970;2022-07-03T10:05:17;2.70;;;1.95;;
2562;SDS011;1291;51.420;6.970;2022-07-03T10:08:16;4.03;;;2.90;;
2562;SDS011;1291;51.420;6.970;2022-07-03T10:10:44;3.17;;;2.50;;
2562;SDS011;1291;51.420;6.970;2022-07-03T10:13:11;3.38;;;2.63;;
2562;SDS011;1291;51.420;6.970;2022-07-03T10:15:37;3.75;;;2.47;;
2562;SDS011;1291;51.420;6.970;2022-07-03T10:18:04;5.80;;;3.20;;
2562;SDS011;1291;51.420;6.970;2022-07-03T10:23:08;4.13;;;2.13;;
2562;SDS011;1291;51.420;6.970;2022-07-03T10:25:34;2.90;;;2.20;;
2562;SDS011;1291;51.420;6.970;2022-07-03T10:28:00;3.92;;;2.22;;
2562;SDS011;1291;51.420;6.970;2022-07-03T10:30:29;6.05;;;2.40;;
2562;SDS011;1291;51.420;6.970;2022-07-03T10:32:55;1.90;;;1.73;;
2562;SDS011;1291;51.420;6.970;2022-07-03T10:35:34;2.53;;;2.30;;
2562;SDS011;1291;51.420;6.970;2022-07-03T10:40:43;8.48;;;2.22;;
2562;SDS011;1291;51.420;6.970;2022-07-03T10:43:30;5.32;;;2.90;;
2562;SDS011;1291;51.420;6.970;2022-07-03T10:46:18;3.53;;;2.63;;
2562;SDS011;1291;51.420;6.970;2022-07-03T10:51:24;3.42;;;2.13;;
2562;SDS011;1291;51.420;6.970;2022-07-03T10:54:10;5.80;;;1.90;;
2562;SDS011;1291;51.420;6.970;2022-07-03T11:12:56;5.55;;;2.13;;
2562;SDS011;1291;51.420;6.970;2022-07-03T11:15:28;3.13;;;2.10;;
2562;SDS011;1291;51.420;6.970;2022-07-03T11:18:10;2.55;;;1.60;;
2562;SDS011;1291;51.420;6.970;2022-07-03T11:25:53;2.78;;;1.85;;
2562;SDS011;1291;51.420;6.970;2022-07-03T11:41:25;3.33;;;1.92;;
2562;SDS011;1291;51.420;6.970;2022-07-03T11:43:53;2.45;;;1.90;;
2562;SDS011;1291;51.420;6.970;2022-07-03T11:46:24;3.40;;;1.98;;
2562;SDS011;1291;51.420;6.970;2022-07-03T11:49:10;4.03;;;1.83;;
2562;SDS011;1291;51.420;6.970;2022-07-03T11:51:53;4.35;;;2.28;;
2562;SDS011;1291;51.420;6.970;2022-07-03T11:54:19;5.97;;;2.22;;
2562;SDS011;1291;51.420;6.970;2022-07-03T11:56:45;4.13;;;2.28;;
2562;SDS011;1291;51.420;6.970;2022-07-03T11:59:11;4.20;;;2.20;;
2562;SDS011;1291;51.420;6.970;2022-07-03T12:01:37;4.07;;;2.95;;
2562;SDS011;1291;51.420;6.970;2022-07-03T12:06:48;2.60;;;2.17;;
2562;SDS011;1291;51.420;6.970;2022-07-03T12:09:14;2.92;;;2.05;;
2562;SDS011;1291;51.420;6.970;2022-07-03T12:11:51;5.72;;;1.90;;
2562;SDS011;1291;51.420;6.970;2022-07-03T12:14:48;2.83;;;2.08;;
2562;SDS011;1291;51.420;6.970;2022-07-03T12:17:15;5.03;;;1.90;;
2562;SDS011;1291;51.420;6.970;2022-07-03T12:20:00;2.60;;;1.90;;
2562;SDS011;1291;51.420;6.970;2022-07-03T12:22:36;3.83;;;1.60;;
2562;SDS011;1291;51.420;6.970;2022-07-03T12:25:10;3.67;;;1.92;;
2562;SDS011;1291;51.420;6.970;2022-07-03T12:27:37;4.13;;;1.80;;
2562;SDS011;1291;51.420;6.970;2022-07-03T12:30:08;3.63;;;2.53;;
2562;SDS011;1291;51.420;6.970;2022-07-03T12:32:37;4.25;;;2.30;;
2562;SDS011;1291;51.420;6.970;2022-07-03T12:35:03;5.93;;;1.70;;
2562;SDS011;1291;51.420;6.970;2022-07-03T12:37:39;3.63;;;1.92;;
2562;SDS011;1291;51.420;6.970;2022-07-03T12:40:09;2.65;;;1.90;;
2562;SDS011;1291;51.420;6.970;2022-07-03T12:42:42;3.55;;;1.60;;
2562;SDS011;1291;51.420;6.970;2022-07-03T12:45:11;2.20;;;1.80;;
2562;SDS011;1291;51.420;6.970;2022-07-03T12:47:38;3.17;;;1.38;;
2562;SDS011;1291;51.420;6.970;2022-07-03T12:50:04;2.35;;;1.73;;
2562;SDS011;1291;51.420;6.970;2022-07-03T12:52:31;3.25;;;1.42;;
2562;SDS011;1291;51.420;6.970;2022-07-03T12:55:01;3.58;;;1.27;;
2562;SDS011;1291;51.420;6.970;2022-07-03T12:57:27;2.30;;;1.30;;
2562;SDS011;1291;51.420;6.970;2022-07-03T13:00:15;3.22;;;1.60;;
2562;SDS011;1291;51.420;6.970;2022-07-03T13:02:43;1.73;;;1.52;;
2562;SDS011;1291;51.420;6.970;2022-07-03T13:05:23;1.35;;;1.25;;
2562;SDS011;1291;51.420;6.970;2022-07-03T13:07:50;3.70;;;1.40;;
2562;SDS011;1291;51.420;6.970;2022-07-03T13:10:17;2.53;;;1.80;;
2562;SDS011;1291;51.420;6.970;2022-07-03T13:12:45;2.40;;;1.52;;
2562;SDS011;1291;51.420;6.970;2022-07-03T13:15:33;3.80;;;1.60;;
2562;SDS011;1291;51.420;6.970;2022-07-03T13:17:59;2.20;;;1.60;;
2562;SDS011;1291;51.420;6.970;2022-07-03T13:20:26;2.13;;;1.48;;
2562;SDS011;1291;51.420;6.970;2022-07-03T13:22:55;3.25;;;1.40;;
2562;SDS011;1291;51.420;6.970;2022-07-03T13:25:22;2.38;;;1.48;;
2562;SDS011;1291;51.420;6.970;2022-07-03T13:27:48;1.50;;;1.23;;
2562;SDS011;1291;51.420;6.970;2022-07-03T13:30:17;2.90;;;1.70;;
2562;SDS011;1291;51.420;6.970;2022-07-03T13:32:44;1.52;;;1.30;;
2562;SDS011;1291;51.420;6.970;2022-07-03T13:35:10;1.73;;;1.48;;
2562;SDS011;1291;51.420;6.970;2022-07-03T13:37:35;4.18;;;1.40;;
2562;SDS011;1291;51.420;6.970;2022-07-03T13:40:04;1.20;;;1.20;;
2562;SDS011;1291;51.420;6.970;2022-07-03T13:42:30;2.50;;;1.38;;
2562;SDS011;1291;51.420;6.970;2022-07-03T13:44:56;3.50;;;1.27;;
2562;SDS011;1291;51.420;6.970;2022-07-03T13:47:21;2.95;;;1.33;;
2562;SDS011;1291;51.420;6.970;2022-07-03T13:49:48;4.07;;;1.40;;
2562;SDS011;1291;51.420;6.970;2022-07-03T13:52:14;4.57;;;1.30;;
2562;SDS011;1291;51.420;6.970;2022-07-03T13:54:40;2.67;;;1.60;;
2562;SDS011;1291;51.420;6.970;2022-07-03T13:57:05;3.08;;;1.30;;
2562;SDS011;1291;51.420;6.970;2022-07-03T13:59:31;2.40;;;1.20;;
2562;SDS011;1291;51.420;6.970;2022-07-03T14:01:57;2.75;;;1.60;;
2562;SDS011;1291;51.420;6.970;2022-07-03T14:04:23;3.25;;;1.75;;
2562;SDS011;1291;51.420;6.970;2022-07-03T14:06:48;3.58;;;1.52;;
2562;SDS011;1291;51.420;6.970;2022-07-03T14:09:14;1.75;;;1.35;;
2562;SDS011;1291;51.420;6.970;2022-07-03T14:11:39;1.90;;;1.23;;
2562;SDS011;1291;51.420;6.970;2022-07-03T14:14:05;3.90;;;1.20;;
2562;SDS011;1291;51.420;6.970;2022-07-03T14:16:31;2.00;;;1.48;;
2562;SDS011;1291;51.420;6.970;2022-07-03T14:18:56;1.27;;;1.17;;
2562;SDS011;1291;51.420;6.970;2022-07-03T14:21:22;2.20;;;1.38;;
2562;SDS011;1291;51.420;6.970;2022-07-03T14:23:47;1.40;;;1.30;;
2562;SDS011;1291;51.420;6.970;2022-07-03T14:26:12;4.43;;;1.23;;
2562;SDS011;1291;51.420;6.970;2022-07-03T14:28:38;1.38;;;1.10;;
2562;SDS011;1291;51.420;6.970;2022-07-03T14:31:21;1.00;;;1.00;;
2562;SDS011;1291;51.420;6.970;2022-07-03T14:34:05;2.08;;;1.63;;
2562;SDS011;1291;51.420;6.970;2022-07-03T14:36:31;1.63;;;0.93;;
2562;SDS011;1291;51.420;6.970;2022-07-03T14:38:59;1.20;;;1.10;;
2562;SDS011;1291;51.420;6.970;2022-07-03T14:41:25;1.10;;;0.80;;
2562;SDS011;1291;51.420;6.970;2022-07-03T14:43:51;1.15;;;1.05;;
2562;SDS011;1291;51.420;6.970;2022-07-03T14:46:17;5.05;;;1.20;;
2562;SDS011;1291;51.420;6.970;2022-07-03T14:48:43;2.53;;;0.93;;
2562;SDS011;1291;51.420;6.970;2022-07-03T14:51:08;2.30;;;0.98;;
2562;SDS011;1291;51.420;6.970;2022-07-03T14:53:34;2.17;;;1.15;;
2562;SDS011;1291;51.420;6.970;2022-07-03T14:55:59;1.73;;;0.93;;
2562;SDS011;1291;51.420;6.970;2022-07-03T14:58:27;3.17;;;1.00;;
2562;SDS011;1291;51.420;6.970;2022-07-03T15:00:56;2.58;;;1.27;;
2562;SDS011;1291;51.420;6.970;2022-07-03T15:03:33;1.70;;;1.20;;
2562;SDS011;1291;51.420;6.970;2022-07-03T15:06:00;1.90;;;1.10;;
2562;SDS011;1291;51.420;6.970;2022-07-03T15:10:53;4.68;;;1.05;;
2562;SDS011;1291;51.420;6.970;2022-07-03T15:13:19;1.15;;;1.10;;
2562;SDS011;1291;51.420;6.970;2022-07-03T15:15:45;2.17;;;1.10;;
2562;SDS011;1291;51.420;6.970;2022-07-03T15:18:13;1.77;;;1.15;;
2562;SDS011;1291;51.420;6.970;2022-07-03T15:20:42;2.55;;;1.17;;
2562;SDS011;1291;51.420;6.970;2022-07-03T15:23:08;2.85;;;1.08;;
2562;SDS011;1291;51.420;6.970;2022-07-03T15:25:35;3.17;;;1.20;;
2562;SDS011;1291;51.420;6.970;2022-07-03T15:28:02;1.38;;;0.95;;
2562;SDS011;1291;51.420;6.970;2022-07-03T15:30:28;1.52;;;0.90;;
2562;SDS011;1291;51.420;6.970;2022-07-03T15:32:53;1.77;;;1.00;;
2562;SDS011;1291;51.420;6.970;2022-07-03T15:35:21;0.80;;;0.80;;
2562;SDS011;1291;51.420;6.970;2022-07-03T15:40:33;0.90;;;0.90;;
2562;SDS011;1291;51.420;6.970;2022-07-03T15:43:10;1.40;;;1.00;;
2562;SDS011;1291;51.420;6.970;2022-07-03T15:54:22;2.75;;;1.27;;
2562;SDS011;1291;51.420;6.970;2022-07-03T15:56:53;1.95;;;0.90;;
2562;SDS011;1291;51.420;6.970;2022-07-03T15:59:23;1.85;;;1.23;;
2562;SDS011;1291;51.420;6.970;2022-07-03T16:01:54;4.05;;;1.08;;
2562;SDS011;1291;51.420;6.970;2022-07-03T16:07:26;1.52;;;1.23;;
2562;SDS011;1291;51.420;6.970;2022-07-03T16:09:53;1.20;;;1.10;;
2562;SDS011;1291;51.420;6.970;2022-07-03T16:12:19;2.05;;;1.10;;
2562;SDS011;1291;51.420;6.970;2022-07-03T16:14:48;1.05;;;0.98;;
2562;SDS011;1291;51.420;6.970;2022-07-03T16:17:17;2.33;;;1.05;;
2562;SDS011;1291;51.420;6.970;2022-07-03T16:19:45;1.77;;;1.20;;
2562;SDS011;1291;51.420;6.970;2022-07-03T16:22:13;2.33;;;1.15;;
2562;SDS011;1291;51.420;6.970;2022-07-03T16:24:39;1.48;;;0.98;;
2562;SDS011;1291;51.420;6.970;2022-07-03T16:27:06;3.60;;;2.13;;
2562;SDS011;1291;51.420;6.970;2022-07-03T16:29:36;2.78;;;1.13;;
2562;SDS011;1291;51.420;6.970;2022-07-03T16:32:01;7.25;;;5.70;;
2562;SDS011;1291;51.420;6.970;2022-07-03T16:34:35;2.22;;;1.10;;
2562;SDS011;1291;51.420;6.970;2022-07-03T16:37:06;3.80;;;1.48;;
2562;SDS011;1291;51.420;6.970;2022-07-03T16:39:34;2.33;;;1.30;;
2562;SDS011;1291;51.420;6.970;2022-07-03T16:42:01;3.28;;;1.70;;
2562;SDS011;1291;51.420;6.970;2022-07-03T16:44:33;2.20;;;1.08;;
2562;SDS011;1291;51.420;6.970;2022-07-03T16:47:05;5.43;;;1.63;;
2562;SDS011;1291;51.420;6.970;2022-07-03T16:49:33;3.63;;;1.90;;
2562;SDS011;1291;51.420;6.970;2022-07-03T16:54:30;1.98;;;1.50;;
2562;SDS011;1291;51.420;6.970;2022-07-03T16:56:57;3.45;;;1.90;;
2562;SDS011;1291;51.420;6.970;2022-07-03T16:59:24;4.03;;;1.65;;
2562;SDS011;1291;51.420;6.970;2022-07-03T17:01:53;3.63;;;3.33;;
2562;SDS011;1291;51.420;6.970;2022-07-03T17:04:18;3.83;;;2.70;;
2562;SDS011;1291;51.420;6.970;2022-07-03T17:06:45;1.65;;;1.30;;
2562;SDS011;1291;51.420;6.970;2022-07-03T17:09:11;1.60;;;1.50;;
2562;SDS011;1291;51.420;6.970;2022-07-03T17:11:38;1.73;;;1.10;;
2562;SDS011;1291;51.420;6.970;2022-07-03T17:14:07;2.03;;;0.90;;